createdAt,value
2022-09-06T00:02:42.807Z,1.70
2022-09-06T00:07:46.384Z,1.70
2022-09-06T00:12:50.188Z,1.70
2022-09-06T00:17:54.592Z,1.70
2022-09-06T00:23:04.536Z,1.60
2022-09-06T00:28:09.411Z,1.30
2022-09-06T00:33:14.103Z,1.30
2022-09-06T00:38:20.435Z,1.20
2022-09-06T00:43:30.313Z,1.40
2022-09-06T00:48:34.014Z,1.20
2022-09-06T00:53:37.687Z,1.30
2022-09-06T00:58:41.714Z,1.10
2022-09-06T01:03:46.642Z,2.20
2022-09-06T01:09:06.947Z,1.50
2022-09-06T01:14:34.948Z,1.70
2022-09-06T01:20:16.015Z,1.40
2022-09-06T01:26:06.320Z,1.30
2022-09-06T01:31:25.242Z,1.40
2022-09-06T01:36:45.769Z,1.70
2022-09-06T01:41:59.315Z,1.20
2022-09-06T01:47:21.463Z,1.60
2022-09-06T01:52:44.050Z,1.90
2022-09-06T01:58:10.175Z,1.90
2022-09-06T02:03:41.376Z,1.10
2022-09-06T02:08:48.224Z,1.60
2022-09-06T02:13:58.255Z,1.30
2022-09-06T02:19:23.715Z,1.70
2022-09-06T02:24:31.092Z,1.70
2022-09-06T02:29:36.630Z,1.40
2022-09-06T02:34:41.679Z,1.30
2022-09-06T02:39:45.304Z,1.60
2022-09-06T02:44:49.597Z,1.50
2022-09-06T02:49:53.630Z,1.60
2022-09-06T02:54:57.093Z,1.60
2022-09-06T03:00:00.428Z,1.80
2022-09-06T03:05:04.105Z,1.50
2022-09-06T03:10:07.747Z,1.40
2022-09-06T03:15:12.830Z,1.70
2022-09-06T03:20:16.254Z,1.60
2022-09-06T03:25:19.683Z,2.00
2022-09-06T03:30:23.364Z,2.00
2022-09-06T03:35:30.532Z,3.00
2022-09-06T03:40:36.788Z,2.70
2022-09-06T03:45:43.439Z,1.90
2022-09-06T03:50:53.060Z,2.10
2022-09-06T03:56:01.972Z,1.60
2022-09-06T04:01:12.059Z,1.80
2022-09-06T04:06:16.729Z,2.20
2022-09-06T04:11:32.629Z,1.60
2022-09-06T04:16:58.194Z,1.70
2022-09-06T04:22:13.830Z,2.50
2022-09-06T04:27:18.763Z,1.80
2022-09-06T04:32:22.119Z,2.00
2022-09-06T04:37:25.616Z,2.00
2022-09-06T04:42:29.077Z,2.20
2022-09-06T04:47:35.871Z,2.10
2022-09-06T04:52:39.185Z,1.50
2022-09-06T04:57:46.544Z,2.30
2022-09-06T05:02:52.001Z,1.60
2022-09-06T05:07:56.153Z,2.40
2022-09-06T05:12:59.910Z,1.70
2022-09-06T05:18:12.867Z,2.20
2022-09-06T05:23:33.877Z,1.90
2022-09-06T05:28:40.140Z,2.50
2022-09-06T05:33:44.885Z,2.80
2022-09-06T05:38:48.441Z,2.10
2022-09-06T05:43:54.802Z,2.60
2022-09-06T05:49:04.973Z,2.20
2022-09-06T05:54:11.580Z,2.40
2022-09-06T05:59:15.429Z,1.90
2022-09-06T06:04:18.994Z,2.40
2022-09-06T06:09:22.362Z,2.20
2022-09-06T06:14:25.668Z,1.70
2022-09-06T06:19:29.425Z,2.30
2022-09-06T06:24:33.642Z,1.80
2022-09-06T06:29:38.600Z,1.90
2022-09-06T06:34:42.085Z,1.40
2022-09-06T06:39:45.568Z,2.40
2022-09-06T06:44:49.005Z,2.20
2022-09-06T06:49:52.447Z,2.10
2022-09-06T06:54:58.847Z,2.60
2022-09-06T07:00:07.202Z,1.70
2022-09-06T07:10:36.654Z,2.00
2022-09-06T07:15:41.091Z,2.00
2022-09-06T07:26:15.801Z,2.40
2022-09-06T07:36:45.854Z,2.10
2022-09-06T07:41:51.021Z,2.50
2022-09-06T07:46:54.603Z,2.90
2022-09-06T07:52:00.279Z,2.80
2022-09-06T07:57:03.711Z,2.90
2022-09-06T08:02:10.457Z,2.80
2022-09-06T08:07:40.460Z,2.90
2022-09-06T08:12:59.700Z,3.10
2022-09-06T08:18:11.816Z,2.50
2022-09-06T08:23:20.177Z,2.40
2022-09-06T08:28:28.998Z,2.40
2022-09-06T08:33:34.198Z,2.50
2022-09-06T08:38:42.462Z,2.30
2022-09-06T08:49:33.440Z,2.00
2022-09-06T08:55:05.206Z,2.40
2022-09-06T09:00:20.510Z,2.20
2022-09-06T09:05:33.074Z,2.20
2022-09-06T09:10:43.776Z,2.40
2022-09-06T09:15:47.254Z,2.10
2022-09-06T09:20:52.191Z,2.80
2022-09-06T09:25:59.991Z,2.40
2022-09-06T09:31:03.609Z,2.30
2022-09-06T09:36:19.985Z,2.50
2022-09-06T09:41:49.600Z,2.30
2022-09-06T09:46:53.813Z,3.00
2022-09-06T09:52:12.105Z,2.50
2022-09-06T09:57:19.094Z,2.30
2022-09-06T10:02:32.233Z,3.50
2022-09-06T10:07:43.903Z,2.50
2022-09-06T10:17:52.017Z,2.60
2022-09-06T10:23:05.922Z,2.20
2022-09-06T10:28:15.390Z,2.30
2022-09-06T10:34:00.362Z,2.10
2022-09-06T10:39:35.907Z,1.90
2022-09-06T10:44:54.240Z,2.00
2022-09-06T10:49:59.597Z,2.10
2022-09-06T10:55:22.724Z,1.60
2022-09-06T11:01:04.584Z,1.70
2022-09-06T11:06:22.502Z,1.80
2022-09-06T11:17:00.176Z,1.70
2022-09-06T11:22:42.436Z,1.60
2022-09-06T11:27:53.931Z,1.50
2022-09-06T11:33:16.797Z,1.30
2022-09-06T11:38:25.836Z,1.70
2022-09-06T11:44:07.709Z,1.50
2022-09-06T11:49:40.378Z,2.00
2022-09-06T11:55:25.292Z,1.50
2022-09-06T12:01:39.983Z,1.80
2022-09-06T12:07:21.765Z,1.30
2022-09-06T12:12:52.156Z,1.50
2022-09-06T12:18:22.898Z,1.50
2022-09-06T12:24:45.875Z,1.80
2022-09-06T12:30:42.436Z,1.90
2022-09-06T12:36:02.306Z,1.50
2022-09-06T12:46:52.465Z,1.90
2022-09-06T12:52:34.182Z,1.90
2022-09-06T12:58:31.839Z,1.60
2022-09-06T13:09:40.962Z,2.10
2022-09-06T13:22:33.887Z,1.80
2022-09-06T13:28:38.558Z,1.80
2022-09-06T13:34:11.110Z,1.40
2022-09-06T13:39:34.216Z,1.40
2022-09-06T13:44:40.343Z,1.50
2022-09-06T13:49:58.734Z,1.50
2022-09-06T13:55:23.061Z,1.80
2022-09-06T14:00:35.642Z,1.50
2022-09-06T14:05:48.081Z,1.60
2022-09-06T14:10:55.188Z,1.40
2022-09-06T14:15:58.758Z,1.40
2022-09-06T14:21:02.408Z,1.30
2022-09-06T14:26:14.884Z,1.50
2022-09-06T14:31:36.110Z,1.40
2022-09-06T14:36:56.453Z,1.20
2022-09-06T14:42:05.069Z,1.60
2022-09-06T14:47:17.262Z,1.70
2022-09-06T14:58:00.376Z,1.30
2022-09-06T15:03:31.575Z,1.20
2022-09-06T15:09:09.970Z,1.50
2022-09-06T15:14:41.687Z,1.50
2022-09-06T15:25:35.817Z,1.60
2022-09-06T15:30:50.793Z,1.50
2022-09-06T15:36:21.007Z,1.60
2022-09-06T15:41:27.839Z,1.30
2022-09-06T15:46:45.900Z,1.30
2022-09-06T15:51:51.813Z,1.20
2022-09-06T15:57:07.243Z,1.20
2022-09-06T16:02:30.712Z,1.10
2022-09-06T16:07:43.537Z,1.10
2022-09-06T16:12:58.155Z,1.00
2022-09-06T16:18:06.451Z,1.30
2022-09-06T16:23:13.119Z,1.70
2022-09-06T16:28:21.876Z,1.00
2022-09-06T16:33:25.607Z,0.90
2022-09-06T16:38:33.570Z,1.40
2022-09-06T16:43:38.877Z,1.10
2022-09-06T16:49:07.247Z,0.80
2022-09-06T16:54:15.004Z,0.90
2022-09-06T16:59:23.551Z,0.90
2022-09-06T17:04:29.705Z,0.90
2022-09-06T17:09:45.521Z,1.20
2022-09-06T17:14:54.706Z,1.40
2022-09-06T17:19:59.403Z,1.60
2022-09-06T17:25:04.544Z,1.60
2022-09-06T17:30:08.772Z,1.60
2022-09-06T17:35:17.319Z,1.20
2022-09-06T17:40:21.985Z,1.20
2022-09-06T17:45:28.330Z,1.60
2022-09-06T17:50:35.795Z,1.50
2022-09-06T17:55:41.422Z,1.40
2022-09-06T18:00:48.363Z,1.70
2022-09-06T18:05:52.112Z,1.50
2022-09-06T18:11:24.661Z,1.70
2022-09-06T18:16:34.740Z,1.60
2022-09-06T18:21:44.841Z,1.50
2022-09-06T18:26:54.965Z,1.80
2022-09-06T18:32:04.599Z,1.40
2022-09-06T18:37:13.219Z,1.50
2022-09-06T18:42:20.421Z,1.90
2022-09-06T18:47:58.553Z,1.70
2022-09-06T18:53:20.416Z,2.20
2022-09-06T18:58:57.026Z,2.10
2022-09-06T19:04:10.675Z,2.50
2022-09-06T19:09:57.029Z,4.30
2022-09-06T19:15:32.798Z,2.90
2022-09-06T19:20:53.015Z,2.60
2022-09-06T19:26:19.947Z,1.80
2022-09-06T19:32:03.907Z,2.20
2022-09-06T19:37:45.316Z,2.40
2022-09-06T19:43:23.953Z,3.90
2022-09-06T19:48:53.699Z,2.90
2022-09-06T19:54:19.911Z,2.30
2022-09-06T20:05:24.358Z,2.20
2022-09-06T20:10:35.093Z,2.60
2022-09-06T20:15:42.116Z,3.00
2022-09-06T20:20:45.690Z,2.80
2022-09-06T20:26:13.081Z,2.90
2022-09-06T20:31:18.934Z,3.10
2022-09-06T20:36:22.528Z,2.50
2022-09-06T20:41:26.965Z,2.90
2022-09-06T20:46:32.712Z,2.10
2022-09-06T20:51:38.800Z,2.40
2022-09-06T20:56:43.572Z,2.10
2022-09-06T21:01:47.579Z,2.10
2022-09-06T21:06:51.771Z,2.50
2022-09-06T21:11:57.741Z,2.00
2022-09-06T21:17:01.229Z,2.20
2022-09-06T21:22:04.618Z,2.20
2022-09-06T21:27:08.158Z,2.00
2022-09-06T21:32:11.560Z,2.40
2022-09-06T21:37:14.930Z,2.30
2022-09-06T21:42:18.902Z,2.40
2022-09-06T21:47:22.279Z,2.20
2022-09-06T21:52:26.715Z,2.10
2022-09-06T21:57:30.042Z,2.20
2022-09-06T22:02:34.496Z,2.10
2022-09-06T22:07:38.040Z,2.40
2022-09-06T22:12:45.905Z,2.20
2022-09-06T22:17:49.864Z,2.50
2022-09-06T22:22:53.139Z,2.40
2022-09-06T22:27:56.622Z,3.10
2022-09-06T22:33:00.191Z,2.20
2022-09-06T22:38:03.739Z,2.50
2022-09-06T22:43:12.900Z,1.90
2022-09-06T22:48:24.988Z,2.50
2022-09-06T22:53:29.575Z,2.30
2022-09-06T22:58:38.070Z,1.90
2022-09-06T23:03:42.759Z,2.20
2022-09-06T23:08:47.247Z,2.20
2022-09-06T23:13:55.747Z,2.50
2022-09-06T23:19:05.982Z,2.40
2022-09-06T23:24:11.548Z,2.40
2022-09-06T23:29:15.162Z,2.00
2022-09-06T23:34:18.688Z,2.60
2022-09-06T23:39:22.515Z,2.80
2022-09-06T23:44:25.992Z,2.20
2022-09-06T23:49:29.899Z,2.10
2022-09-06T23:54:43.424Z,2.40
2022-09-06T23:59:49.803Z,2.60
